createdAt,value
2022-11-04T09:30:47.064Z,19.20
2022-11-04T09:45:21.732Z,17.90
2022-11-04T09:57:42.417Z,10.80
2022-11-04T09:59:28.820Z,13.37
2022-11-04T10:02:40.794Z,10.00
2022-11-04T10:05:47.364Z,16.40
2022-11-04T10:13:03.790Z,15.33
2022-11-04T10:20:51.997Z,10.80
2022-11-04T10:23:40.271Z,8.80
2022-11-04T10:26:15.373Z,10.03
2022-11-04T10:28:51.420Z,11.07
2022-11-04T10:31:26.221Z,12.33
2022-11-04T10:34:01.861Z,11.00
2022-11-04T10:36:36.439Z,10.60
2022-11-04T10:39:20.896Z,11.83
2022-11-04T10:41:53.468Z,10.60
2022-11-04T10:44:23.068Z,8.37
2022-11-04T10:46:56.286Z,12.40
2022-11-04T10:49:37.921Z,11.33
2022-11-04T10:52:06.775Z,9.37
2022-11-04T10:54:40.432Z,10.03
2022-11-04T10:57:12.651Z,9.10
2022-11-04T10:59:50.430Z,12.47
2022-11-04T11:02:18.562Z,7.83
2022-11-04T11:04:51.750Z,3.67
2022-11-04T11:07:23.684Z,1.07
2022-11-04T11:09:58.819Z,0.77
2022-11-04T11:12:51.662Z,3.10
2022-11-04T11:15:30.253Z,1.73
2022-11-04T11:18:02.834Z,2.77
2022-11-04T11:20:33.501Z,0.67
2022-11-04T11:23:05.070Z,1.33
2022-11-04T11:25:40.643Z,3.23
2022-11-04T11:28:11.335Z,0.83
2022-11-04T11:30:55.080Z,0.83
2022-11-04T11:33:32.635Z,0.67
2022-11-04T11:36:06.806Z,0.50
2022-11-04T11:38:35.736Z,3.40
2022-11-04T11:41:25.507Z,2.07
2022-11-04T11:43:55.034Z,0.90
2022-11-04T11:46:34.437Z,1.03
2022-11-04T11:49:10.557Z,4.37
2022-11-04T11:51:39.532Z,0.70
2022-11-04T11:54:18.270Z,0.27
2022-11-04T12:02:49.711Z,1.70
2022-11-04T12:16:05.693Z,1.30
2022-11-04T12:19:29.839Z,1.07
2022-11-04T12:26:02.911Z,2.40
2022-11-04T12:29:10.222Z,3.63
2022-11-04T12:35:24.896Z,1.33
2022-11-04T12:38:38.968Z,2.20
2022-11-04T12:41:41.853Z,5.40
2022-11-04T12:44:18.314Z,0.33
2022-11-04T12:47:43.908Z,4.63
2022-11-04T12:50:50.956Z,3.67
2022-11-04T12:53:35.584Z,0.57
2022-11-04T12:56:18.213Z,3.03
2022-11-04T12:59:45.876Z,1.57
2022-11-04T13:02:30.358Z,1.93
2022-11-04T13:05:07.408Z,4.03
2022-11-04T13:07:58.997Z,1.93
2022-11-04T13:10:50.692Z,3.67
2022-11-04T13:13:49.000Z,5.17
2022-11-04T13:16:59.330Z,1.77
2022-11-04T13:20:48.177Z,5.40
2022-11-04T13:23:37.850Z,0.60
2022-11-04T13:26:41.891Z,3.63
2022-11-04T13:29:21.364Z,3.60
2022-11-04T13:31:59.284Z,3.83
2022-11-04T13:34:43.928Z,3.37
2022-11-04T13:37:30.734Z,2.73
2022-11-04T13:43:45.009Z,5.93
2022-11-04T13:46:32.490Z,3.50
2022-11-04T13:49:06.103Z,4.20
2022-11-04T13:51:48.270Z,3.27
2022-11-04T13:54:51.104Z,1.43
2022-11-04T13:57:26.881Z,2.40
2022-11-04T14:00:37.886Z,3.20
2022-11-04T14:03:42.177Z,5.67
2022-11-04T14:06:24.287Z,2.07
2022-11-04T14:09:35.706Z,1.90
2022-11-04T14:12:41.998Z,3.97
2022-11-04T14:15:56.992Z,2.20
2022-11-04T14:18:59.872Z,6.30
2022-11-04T14:22:17.141Z,1.90
2022-11-04T14:25:00.032Z,1.07
2022-11-04T14:28:29.351Z,3.50
2022-11-04T14:31:28.376Z,1.83
2022-11-04T14:34:15.775Z,2.73
2022-11-04T14:36:48.581Z,3.33
2022-11-04T14:40:08.278Z,3.77
2022-11-04T14:43:03.952Z,2.23
2022-11-04T14:49:05.198Z,2.47
2022-11-04T14:51:45.721Z,2.10
2022-11-04T14:54:26.860Z,2.43
2022-11-04T14:57:12.443Z,2.93
2022-11-04T14:59:49.259Z,3.03
2022-11-04T15:02:29.807Z,3.60
2022-11-04T15:05:00.343Z,3.87
2022-11-04T15:07:39.643Z,2.60
2022-11-04T15:10:26.486Z,2.60
2022-11-04T15:13:02.741Z,4.70
2022-11-04T15:15:34.689Z,4.23
2022-11-04T15:18:31.945Z,3.27
2022-11-04T15:21:13.590Z,6.10
2022-11-04T15:23:46.035Z,5.17
2022-11-04T15:26:26.483Z,3.93
2022-11-04T15:29:02.116Z,10.30
2022-11-04T15:32:05.329Z,2.30
2022-11-04T15:34:40.282Z,6.93
2022-11-04T15:37:22.747Z,2.80
2022-11-04T15:40:44.473Z,4.93
2022-11-04T15:44:33.874Z,5.20
2022-11-04T15:47:24.481Z,4.87
2022-11-04T15:50:36.961Z,8.60
2022-11-04T16:45:38.802Z,6.03
2022-11-04T17:23:28.469Z,8.93
2022-11-04T18:08:07.369Z,9.37
2022-11-04T18:10:53.768Z,15.60
2022-11-04T18:13:37.193Z,16.23
2022-11-04T20:09:07.189Z,13.93
2022-11-04T20:57:22.664Z,5.47
